sensor_id;sensor_type;location;lat;lon;timestamp;P1;durP1;ratioP1;P2;durP2;ratioP2
20375;SDS011;10347;51.828;6.466;2023-11-21T00:00:14;11.05;;;6.68;;
20375;SDS011;10347;51.828;6.466;2023-11-21T00:02:41;10.38;;;7.38;;
20375;SDS011;10347;51.828;6.466;2023-11-21T00:05:07;9.38;;;7.00;;
20375;SDS011;10347;51.828;6.466;2023-11-21T00:07:34;11.45;;;7.45;;
20375;SDS011;10347;51.828;6.466;2023-11-21T00:10:01;11.23;;;7.15;;
20375;SDS011;10347;51.828;6.466;2023-11-21T00:12:27;9.63;;;7.32;;
20375;SDS011;10347;51.828;6.466;2023-11-21T00:14:54;10.63;;;7.38;;
20375;SDS011;10347;51.828;6.466;2023-11-21T00:17:20;12.63;;;8.27;;
20375;SDS011;10347;51.828;6.466;2023-11-21T00:19:45;9.00;;;6.95;;
20375;SDS011;10347;51.828;6.466;2023-11-21T00:22:11;13.98;;;8.07;;
20375;SDS011;10347;51.828;6.466;2023-11-21T00:24:36;10.85;;;7.03;;
20375;SDS011;10347;51.828;6.466;2023-11-21T00:27:02;10.73;;;7.85;;
20375;SDS011;10347;51.828;6.466;2023-11-21T00:29:28;12.00;;;7.90;;
20375;SDS011;10347;51.828;6.466;2023-11-21T00:31:54;11.43;;;8.27;;
20375;SDS011;10347;51.828;6.466;2023-11-21T00:34:20;13.02;;;8.50;;
20375;SDS011;10347;51.828;6.466;2023-11-21T00:36:45;15.50;;;7.97;;
20375;SDS011;10347;51.828;6.466;2023-11-21T00:39:11;14.27;;;8.02;;
20375;SDS011;10347;51.828;6.466;2023-11-21T00:41:36;13.82;;;8.13;;
20375;SDS011;10347;51.828;6.466;2023-11-21T00:44:02;11.80;;;7.85;;
20375;SDS011;10347;51.828;6.466;2023-11-21T00:46:28;12.13;;;8.40;;
20375;SDS011;10347;51.828;6.466;2023-11-21T00:48:54;13.75;;;8.30;;
20375;SDS011;10347;51.828;6.466;2023-11-21T00:51:20;12.55;;;8.43;;
20375;SDS011;10347;51.828;6.466;2023-11-21T00:53:47;13.27;;;8.15;;
20375;SDS011;10347;51.828;6.466;2023-11-21T00:56:13;12.40;;;7.55;;
20375;SDS011;10347;51.828;6.466;2023-11-21T00:58:39;14.88;;;8.18;;
20375;SDS011;10347;51.828;6.466;2023-11-21T01:01:08;12.95;;;8.30;;
20375;SDS011;10347;51.828;6.466;2023-11-21T01:03:34;12.48;;;8.32;;
20375;SDS011;10347;51.828;6.466;2023-11-21T01:06:00;12.82;;;8.30;;
20375;SDS011;10347;51.828;6.466;2023-11-21T01:08:25;12.63;;;9.00;;
20375;SDS011;10347;51.828;6.466;2023-11-21T01:10:51;12.90;;;9.02;;
20375;SDS011;10347;51.828;6.466;2023-11-21T01:13:16;10.70;;;8.25;;
20375;SDS011;10347;51.828;6.466;2023-11-21T01:15:42;12.77;;;9.18;;
20375;SDS011;10347;51.828;6.466;2023-11-21T01:18:07;12.38;;;7.82;;
20375;SDS011;10347;51.828;6.466;2023-11-21T01:20:36;14.48;;;8.73;;
20375;SDS011;10347;51.828;6.466;2023-11-21T01:23:01;13.27;;;8.25;;
20375;SDS011;10347;51.828;6.466;2023-11-21T01:25:27;13.68;;;8.85;;
20375;SDS011;10347;51.828;6.466;2023-11-21T01:27:52;11.52;;;7.95;;
20375;SDS011;10347;51.828;6.466;2023-11-21T01:30:18;13.25;;;8.50;;
20375;SDS011;10347;51.828;6.466;2023-11-21T01:32:44;13.98;;;8.90;;
20375;SDS011;10347;51.828;6.466;2023-11-21T01:35:10;14.35;;;9.35;;
20375;SDS011;10347;51.828;6.466;2023-11-21T01:37:36;11.30;;;8.23;;
20375;SDS011;10347;51.828;6.466;2023-11-21T01:40:02;11.60;;;8.23;;
20375;SDS011;10347;51.828;6.466;2023-11-21T01:42:33;14.68;;;8.73;;
20375;SDS011;10347;51.828;6.466;2023-11-21T01:44:59;16.50;;;9.18;;
20375;SDS011;10347;51.828;6.466;2023-11-21T01:47:29;13.95;;;8.43;;
20375;SDS011;10347;51.828;6.466;2023-11-21T01:49:56;18.40;;;9.45;;
20375;SDS011;10347;51.828;6.466;2023-11-21T01:52:22;15.55;;;9.07;;
20375;SDS011;10347;51.828;6.466;2023-11-21T01:54:48;14.77;;;9.18;;
20375;SDS011;10347;51.828;6.466;2023-11-21T01:57:14;13.43;;;8.90;;
20375;SDS011;10347;51.828;6.466;2023-11-21T01:59:41;11.98;;;8.50;;
20375;SDS011;10347;51.828;6.466;2023-11-21T02:02:07;12.77;;;8.57;;
20375;SDS011;10347;51.828;6.466;2023-11-21T02:04:34;16.65;;;9.40;;
20375;SDS011;10347;51.828;6.466;2023-11-21T02:07:03;13.80;;;9.05;;
20375;SDS011;10347;51.828;6.466;2023-11-21T02:09:30;15.25;;;9.55;;
20375;SDS011;10347;51.828;6.466;2023-11-21T02:11:58;16.75;;;10.18;;
20375;SDS011;10347;51.828;6.466;2023-11-21T02:14:24;15.27;;;9.48;;
20375;SDS011;10347;51.828;6.466;2023-11-21T02:16:51;15.45;;;9.52;;
20375;SDS011;10347;51.828;6.466;2023-11-21T02:19:18;15.98;;;9.88;;
20375;SDS011;10347;51.828;6.466;2023-11-21T02:21:47;16.20;;;10.27;;
20375;SDS011;10347;51.828;6.466;2023-11-21T02:24:14;14.77;;;10.30;;
20375;SDS011;10347;51.828;6.466;2023-11-21T02:26:42;15.25;;;10.15;;
20375;SDS011;10347;51.828;6.466;2023-11-21T02:29:08;16.60;;;9.88;;
20375;SDS011;10347;51.828;6.466;2023-11-21T02:31:36;18.33;;;10.35;;
20375;SDS011;10347;51.828;6.466;2023-11-21T02:34:10;16.02;;;9.75;;
20375;SDS011;10347;51.828;6.466;2023-11-21T02:36:38;17.55;;;10.40;;
20375;SDS011;10347;51.828;6.466;2023-11-21T02:39:03;15.68;;;9.93;;
20375;SDS011;10347;51.828;6.466;2023-11-21T02:41:29;18.63;;;10.98;;
20375;SDS011;10347;51.828;6.466;2023-11-21T02:43:55;21.42;;;12.15;;
20375;SDS011;10347;51.828;6.466;2023-11-21T02:46:20;18.20;;;11.15;;
20375;SDS011;10347;51.828;6.466;2023-11-21T02:48:47;16.77;;;11.07;;
20375;SDS011;10347;51.828;6.466;2023-11-21T02:51:12;18.67;;;11.52;;
20375;SDS011;10347;51.828;6.466;2023-11-21T02:53:38;18.27;;;10.98;;
20375;SDS011;10347;51.828;6.466;2023-11-21T02:56:03;21.02;;;11.68;;
20375;SDS011;10347;51.828;6.466;2023-11-21T02:58:29;28.67;;;13.23;;
20375;SDS011;10347;51.828;6.466;2023-11-21T03:00:55;24.45;;;13.18;;
20375;SDS011;10347;51.828;6.466;2023-11-21T03:03:21;21.98;;;13.48;;
20375;SDS011;10347;51.828;6.466;2023-11-21T03:05:48;28.88;;;13.65;;
20375;SDS011;10347;51.828;6.466;2023-11-21T03:08:14;27.67;;;13.80;;
20375;SDS011;10347;51.828;6.466;2023-11-21T03:10:40;28.35;;;14.68;;
20375;SDS011;10347;51.828;6.466;2023-11-21T03:13:05;25.05;;;14.43;;
20375;SDS011;10347;51.828;6.466;2023-11-21T03:15:31;29.33;;;15.50;;
20375;SDS011;10347;51.828;6.466;2023-11-21T03:17:57;32.22;;;15.57;;
20375;SDS011;10347;51.828;6.466;2023-11-21T03:20:23;28.83;;;14.98;;
20375;SDS011;10347;51.828;6.466;2023-11-21T03:22:48;28.10;;;15.05;;
20375;SDS011;10347;51.828;6.466;2023-11-21T03:25:14;26.67;;;14.02;;
20375;SDS011;10347;51.828;6.466;2023-11-21T03:27:42;29.42;;;15.07;;
20375;SDS011;10347;51.828;6.466;2023-11-21T03:30:08;29.00;;;14.95;;
20375;SDS011;10347;51.828;6.466;2023-11-21T03:32:34;37.67;;;17.80;;
20375;SDS011;10347;51.828;6.466;2023-11-21T03:35:00;35.35;;;16.85;;
20375;SDS011;10347;51.828;6.466;2023-11-21T03:37:27;31.83;;;16.33;;
20375;SDS011;10347;51.828;6.466;2023-11-21T03:39:52;29.52;;;15.35;;
20375;SDS011;10347;51.828;6.466;2023-11-21T03:42:19;36.83;;;17.75;;
20375;SDS011;10347;51.828;6.466;2023-11-21T03:44:44;33.42;;;16.60;;
20375;SDS011;10347;51.828;6.466;2023-11-21T03:47:10;39.55;;;17.50;;
20375;SDS011;10347;51.828;6.466;2023-11-21T03:49:35;31.90;;;15.68;;
20375;SDS011;10347;51.828;6.466;2023-11-21T03:52:01;29.92;;;16.05;;
20375;SDS011;10347;51.828;6.466;2023-11-21T03:54:27;28.17;;;15.20;;
20375;SDS011;10347;51.828;6.466;2023-11-21T03:56:53;30.13;;;15.82;;
20375;SDS011;10347;51.828;6.466;2023-11-21T03:59:18;28.85;;;14.73;;
20375;SDS011;10347;51.828;6.466;2023-11-21T04:01:44;31.92;;;15.57;;
20375;SDS011;10347;51.828;6.466;2023-11-21T04:04:09;31.65;;;15.85;;
20375;SDS011;10347;51.828;6.466;2023-11-21T04:06:35;29.23;;;15.52;;
20375;SDS011;10347;51.828;6.466;2023-11-21T04:09:02;32.55;;;16.23;;
20375;SDS011;10347;51.828;6.466;2023-11-21T04:11:29;31.20;;;14.65;;
20375;SDS011;10347;51.828;6.466;2023-11-21T04:13:55;28.08;;;15.10;;
20375;SDS011;10347;51.828;6.466;2023-11-21T04:16:20;26.60;;;14.70;;
20375;SDS011;10347;51.828;6.466;2023-11-21T04:18:46;35.05;;;16.33;;
20375;SDS011;10347;51.828;6.466;2023-11-21T04:21:11;28.70;;;15.13;;
20375;SDS011;10347;51.828;6.466;2023-11-21T04:23:37;30.48;;;15.55;;
20375;SDS011;10347;51.828;6.466;2023-11-21T04:26:03;26.38;;;14.60;;
20375;SDS011;10347;51.828;6.466;2023-11-21T04:28:28;29.05;;;15.07;;
20375;SDS011;10347;51.828;6.466;2023-11-21T04:30:54;24.27;;;14.45;;
20375;SDS011;10347;51.828;6.466;2023-11-21T04:33:19;32.35;;;16.33;;
20375;SDS011;10347;51.828;6.466;2023-11-21T04:35:46;28.15;;;15.98;;
20375;SDS011;10347;51.828;6.466;2023-11-21T04:38:12;25.90;;;15.70;;
20375;SDS011;10347;51.828;6.466;2023-11-21T04:40:37;26.15;;;14.65;;
20375;SDS011;10347;51.828;6.466;2023-11-21T04:43:03;28.63;;;16.13;;
20375;SDS011;10347;51.828;6.466;2023-11-21T04:45:29;27.25;;;15.27;;
20375;SDS011;10347;51.828;6.466;2023-11-21T04:47:54;27.33;;;15.43;;
20375;SDS011;10347;51.828;6.466;2023-11-21T04:50:21;32.05;;;16.13;;
20375;SDS011;10347;51.828;6.466;2023-11-21T04:52:46;28.08;;;13.95;;
20375;SDS011;10347;51.828;6.466;2023-11-21T04:55:12;29.70;;;16.70;;
20375;SDS011;10347;51.828;6.466;2023-11-21T04:57:38;31.80;;;16.88;;
20375;SDS011;10347;51.828;6.466;2023-11-21T05:00:06;29.33;;;16.80;;
20375;SDS011;10347;51.828;6.466;2023-11-21T05:02:33;29.63;;;16.38;;
20375;SDS011;10347;51.828;6.466;2023-11-21T05:05:03;34.03;;;17.25;;
20375;SDS011;10347;51.828;6.466;2023-11-21T05:07:30;29.70;;;16.15;;
20375;SDS011;10347;51.828;6.466;2023-11-21T05:09:57;25.02;;;15.40;;
20375;SDS011;10347;51.828;6.466;2023-11-21T05:12:23;28.85;;;15.70;;
20375;SDS011;10347;51.828;6.466;2023-11-21T05:14:49;34.78;;;17.30;;
20375;SDS011;10347;51.828;6.466;2023-11-21T05:17:15;29.63;;;16.15;;
20375;SDS011;10347;51.828;6.466;2023-11-21T05:19:41;25.75;;;15.90;;
20375;SDS011;10347;51.828;6.466;2023-11-21T05:22:07;33.75;;;17.90;;
20375;SDS011;10347;51.828;6.466;2023-11-21T05:24:33;37.17;;;18.13;;
20375;SDS011;10347;51.828;6.466;2023-11-21T05:26:59;30.35;;;17.15;;
20375;SDS011;10347;51.828;6.466;2023-11-21T05:29:25;29.42;;;16.20;;
20375;SDS011;10347;51.828;6.466;2023-11-21T05:31:51;27.38;;;15.52;;
20375;SDS011;10347;51.828;6.466;2023-11-21T05:34:17;33.58;;;17.73;;
20375;SDS011;10347;51.828;6.466;2023-11-21T05:36:43;28.05;;;15.60;;
20375;SDS011;10347;51.828;6.466;2023-11-21T05:39:10;31.40;;;15.55;;
20375;SDS011;10347;51.828;6.466;2023-11-21T05:41:36;31.17;;;15.73;;
20375;SDS011;10347;51.828;6.466;2023-11-21T05:44:02;34.10;;;17.52;;
20375;SDS011;10347;51.828;6.466;2023-11-21T05:46:27;39.95;;;17.45;;
20375;SDS011;10347;51.828;6.466;2023-11-21T05:48:53;35.90;;;17.15;;
20375;SDS011;10347;51.828;6.466;2023-11-21T05:51:18;34.22;;;17.55;;
20375;SDS011;10347;51.828;6.466;2023-11-21T05:53:44;36.58;;;17.58;;
20375;SDS011;10347;51.828;6.466;2023-11-21T05:56:09;35.67;;;17.40;;
20375;SDS011;10347;51.828;6.466;2023-11-21T05:58:35;38.05;;;18.15;;
20375;SDS011;10347;51.828;6.466;2023-11-21T06:01:00;37.15;;;17.08;;
20375;SDS011;10347;51.828;6.466;2023-11-21T06:03:26;38.53;;;17.40;;
20375;SDS011;10347;51.828;6.466;2023-11-21T06:05:52;40.10;;;18.48;;
20375;SDS011;10347;51.828;6.466;2023-11-21T06:08:17;34.05;;;16.83;;
20375;SDS011;10347;51.828;6.466;2023-11-21T06:10:43;34.35;;;17.33;;
20375;SDS011;10347;51.828;6.466;2023-11-21T06:13:09;29.83;;;15.93;;
20375;SDS011;10347;51.828;6.466;2023-11-21T06:15:35;30.75;;;16.23;;
20375;SDS011;10347;51.828;6.466;2023-11-21T06:18:01;33.78;;;16.90;;
20375;SDS011;10347;51.828;6.466;2023-11-21T06:20:27;33.13;;;16.45;;
20375;SDS011;10347;51.828;6.466;2023-11-21T06:22:52;32.83;;;16.42;;
20375;SDS011;10347;51.828;6.466;2023-11-21T06:25:18;34.60;;;16.90;;
20375;SDS011;10347;51.828;6.466;2023-11-21T06:27:45;30.35;;;15.85;;
20375;SDS011;10347;51.828;6.466;2023-11-21T06:30:14;34.92;;;16.52;;
20375;SDS011;10347;51.828;6.466;2023-11-21T06:32:40;31.67;;;15.50;;
20375;SDS011;10347;51.828;6.466;2023-11-21T06:35:07;32.63;;;15.65;;
20375;SDS011;10347;51.828;6.466;2023-11-21T06:37:36;32.67;;;16.55;;
20375;SDS011;10347;51.828;6.466;2023-11-21T06:40:02;27.90;;;15.52;;
20375;SDS011;10347;51.828;6.466;2023-11-21T06:42:31;28.48;;;14.73;;
20375;SDS011;10347;51.828;6.466;2023-11-21T06:44:58;29.38;;;16.05;;
20375;SDS011;10347;51.828;6.466;2023-11-21T06:47:24;30.77;;;16.58;;
20375;SDS011;10347;51.828;6.466;2023-11-21T06:49:50;28.20;;;16.13;;
20375;SDS011;10347;51.828;6.466;2023-11-21T06:52:16;28.17;;;15.52;;
20375;SDS011;10347;51.828;6.466;2023-11-21T06:54:43;29.83;;;15.95;;
20375;SDS011;10347;51.828;6.466;2023-11-21T06:57:09;29.85;;;15.98;;
20375;SDS011;10347;51.828;6.466;2023-11-21T06:59:34;26.40;;;15.40;;
20375;SDS011;10347;51.828;6.466;2023-11-21T07:02:00;27.13;;;14.82;;
20375;SDS011;10347;51.828;6.466;2023-11-21T07:04:25;23.88;;;14.27;;
20375;SDS011;10347;51.828;6.466;2023-11-21T07:06:51;30.90;;;15.88;;
20375;SDS011;10347;51.828;6.466;2023-11-21T07:09:18;31.08;;;16.52;;
20375;SDS011;10347;51.828;6.466;2023-11-21T07:11:47;28.23;;;14.75;;
20375;SDS011;10347;51.828;6.466;2023-11-21T07:14:15;28.65;;;14.77;;
20375;SDS011;10347;51.828;6.466;2023-11-21T07:16:42;26.40;;;15.07;;
20375;SDS011;10347;51.828;6.466;2023-11-21T07:19:07;28.05;;;15.50;;
20375;SDS011;10347;51.828;6.466;2023-11-21T07:21:33;25.83;;;14.45;;
20375;SDS011;10347;51.828;6.466;2023-11-21T07:24:00;26.98;;;14.85;;
20375;SDS011;10347;51.828;6.466;2023-11-21T07:26:28;23.08;;;13.73;;
20375;SDS011;10347;51.828;6.466;2023-11-21T07:28:55;25.45;;;14.50;;
20375;SDS011;10347;51.828;6.466;2023-11-21T07:31:23;26.45;;;14.20;;
20375;SDS011;10347;51.828;6.466;2023-11-21T07:33:49;24.75;;;14.20;;
20375;SDS011;10347;51.828;6.466;2023-11-21T07:36:16;23.95;;;14.82;;
20375;SDS011;10347;51.828;6.466;2023-11-21T07:38:46;25.13;;;14.85;;
20375;SDS011;10347;51.828;6.466;2023-11-21T07:41:12;23.48;;;13.90;;
20375;SDS011;10347;51.828;6.466;2023-11-21T07:43:40;20.88;;;12.40;;
20375;SDS011;10347;51.828;6.466;2023-11-21T07:46:06;23.15;;;14.05;;
20375;SDS011;10347;51.828;6.466;2023-11-21T07:48:33;24.33;;;13.48;;
20375;SDS011;10347;51.828;6.466;2023-11-21T07:50:59;19.95;;;12.65;;
20375;SDS011;10347;51.828;6.466;2023-11-21T07:53:26;20.55;;;13.02;;
20375;SDS011;10347;51.828;6.466;2023-11-21T07:55:54;25.60;;;14.93;;
20375;SDS011;10347;51.828;6.466;2023-11-21T07:58:20;26.20;;;14.98;;
20375;SDS011;10347;51.828;6.466;2023-11-21T08:00:45;23.52;;;13.38;;
20375;SDS011;10347;51.828;6.466;2023-11-21T08:03:12;21.77;;;14.30;;
20375;SDS011;10347;51.828;6.466;2023-11-21T08:05:38;25.48;;;14.93;;
20375;SDS011;10347;51.828;6.466;2023-11-21T08:08:04;23.55;;;15.00;;
20375;SDS011;10347;51.828;6.466;2023-11-21T08:10:30;21.48;;;13.77;;
20375;SDS011;10347;51.828;6.466;2023-11-21T08:12:55;22.08;;;13.13;;
20375;SDS011;10347;51.828;6.466;2023-11-21T08:15:21;23.42;;;14.70;;
20375;SDS011;10347;51.828;6.466;2023-11-21T08:17:47;20.25;;;13.35;;
20375;SDS011;10347;51.828;6.466;2023-11-21T08:20:13;22.17;;;13.18;;
20375;SDS011;10347;51.828;6.466;2023-11-21T08:22:41;26.10;;;13.65;;
20375;SDS011;10347;51.828;6.466;2023-11-21T08:25:07;23.08;;;13.73;;
20375;SDS011;10347;51.828;6.466;2023-11-21T08:27:33;21.85;;;13.98;;
20375;SDS011;10347;51.828;6.466;2023-11-21T08:29:59;20.55;;;13.38;;
20375;SDS011;10347;51.828;6.466;2023-11-21T08:32:25;23.63;;;13.32;;
20375;SDS011;10347;51.828;6.466;2023-11-21T08:34:51;22.92;;;13.68;;
20375;SDS011;10347;51.828;6.466;2023-11-21T08:37:16;21.08;;;13.75;;
20375;SDS011;10347;51.828;6.466;2023-11-21T08:39:45;21.75;;;13.25;;
20375;SDS011;10347;51.828;6.466;2023-11-21T08:42:13;19.50;;;12.40;;
20375;SDS011;10347;51.828;6.466;2023-11-21T08:44:39;18.50;;;12.13;;
20375;SDS011;10347;51.828;6.466;2023-11-21T08:47:05;22.30;;;14.18;;
20375;SDS011;10347;51.828;6.466;2023-11-21T08:49:31;24.58;;;13.90;;
20375;SDS011;10347;51.828;6.466;2023-11-21T08:51:57;21.23;;;13.15;;
20375;SDS011;10347;51.828;6.466;2023-11-21T08:54:24;20.52;;;13.55;;
20375;SDS011;10347;51.828;6.466;2023-11-21T08:56:50;18.00;;;12.25;;
20375;SDS011;10347;51.828;6.466;2023-11-21T08:59:19;16.33;;;11.93;;
20375;SDS011;10347;51.828;6.466;2023-11-21T09:01:46;19.02;;;12.50;;
20375;SDS011;10347;51.828;6.466;2023-11-21T09:04:12;20.02;;;12.73;;
20375;SDS011;10347;51.828;6.466;2023-11-21T09:06:38;22.48;;;14.23;;
20375;SDS011;10347;51.828;6.466;2023-11-21T09:09:04;20.70;;;13.55;;
20375;SDS011;10347;51.828;6.466;2023-11-21T09:11:34;20.27;;;13.75;;
20375;SDS011;10347;51.828;6.466;2023-11-21T09:14:00;19.65;;;13.18;;
20375;SDS011;10347;51.828;6.466;2023-11-21T09:16:26;19.70;;;13.07;;
20375;SDS011;10347;51.828;6.466;2023-11-21T09:18:52;18.60;;;12.27;;
20375;SDS011;10347;51.828;6.466;2023-11-21T09:21:17;22.83;;;13.77;;
20375;SDS011;10347;51.828;6.466;2023-11-21T09:23:46;22.55;;;14.35;;
20375;SDS011;10347;51.828;6.466;2023-11-21T09:26:13;18.45;;;13.10;;
20375;SDS011;10347;51.828;6.466;2023-11-21T09:28:41;17.60;;;11.95;;
20375;SDS011;10347;51.828;6.466;2023-11-21T09:31:11;19.83;;;13.02;;
20375;SDS011;10347;51.828;6.466;2023-11-21T09:33:36;20.50;;;13.63;;
20375;SDS011;10347;51.828;6.466;2023-11-21T09:36:03;23.17;;;14.60;;
20375;SDS011;10347;51.828;6.466;2023-11-21T09:38:29;22.70;;;14.10;;
20375;SDS011;10347;51.828;6.466;2023-11-21T09:40:55;19.70;;;14.07;;
20375;SDS011;10347;51.828;6.466;2023-11-21T09:43:23;19.67;;;13.88;;
20375;SDS011;10347;51.828;6.466;2023-11-21T09:45:54;18.02;;;12.40;;
20375;SDS011;10347;51.828;6.466;2023-11-21T09:48:24;16.75;;;11.98;;
20375;SDS011;10347;51.828;6.466;2023-11-21T09:50:51;17.65;;;12.85;;
20375;SDS011;10347;51.828;6.466;2023-11-21T09:53:19;18.38;;;12.73;;
20375;SDS011;10347;51.828;6.466;2023-11-21T09:55:47;21.00;;;14.15;;
20375;SDS011;10347;51.828;6.466;2023-11-21T09:58:16;22.63;;;13.63;;
20375;SDS011;10347;51.828;6.466;2023-11-21T10:00:43;20.52;;;13.65;;
20375;SDS011;10347;51.828;6.466;2023-11-21T10:03:10;22.05;;;14.52;;
20375;SDS011;10347;51.828;6.466;2023-11-21T10:05:36;22.35;;;13.80;;
20375;SDS011;10347;51.828;6.466;2023-11-21T10:08:09;19.58;;;13.77;;
20375;SDS011;10347;51.828;6.466;2023-11-21T10:10:45;24.90;;;16.13;;
20375;SDS011;10347;51.828;6.466;2023-11-21T10:13:14;29.95;;;17.38;;
20375;SDS011;10347;51.828;6.466;2023-11-21T10:15:42;30.80;;;18.02;;
20375;SDS011;10347;51.828;6.466;2023-11-21T10:18:13;26.40;;;17.45;;
20375;SDS011;10347;51.828;6.466;2023-11-21T10:20:40;25.63;;;15.98;;
20375;SDS011;10347;51.828;6.466;2023-11-21T10:23:07;22.95;;;15.48;;
20375;SDS011;10347;51.828;6.466;2023-11-21T10:25:36;29.38;;;17.77;;
20375;SDS011;10347;51.828;6.466;2023-11-21T10:28:02;29.27;;;17.73;;
20375;SDS011;10347;51.828;6.466;2023-11-21T10:30:35;24.02;;;15.65;;
20375;SDS011;10347;51.828;6.466;2023-11-21T10:33:03;27.63;;;16.02;;
20375;SDS011;10347;51.828;6.466;2023-11-21T10:35:43;21.20;;;13.45;;
20375;SDS011;10347;51.828;6.466;2023-11-21T10:38:15;22.45;;;14.50;;
20375;SDS011;10347;51.828;6.466;2023-11-21T10:40:46;24.10;;;15.30;;
20375;SDS011;10347;51.828;6.466;2023-11-21T10:43:13;32.28;;;16.85;;
20375;SDS011;10347;51.828;6.466;2023-11-21T10:45:39;24.73;;;15.52;;
20375;SDS011;10347;51.828;6.466;2023-11-21T10:48:06;28.02;;;16.42;;
20375;SDS011;10347;51.828;6.466;2023-11-21T10:50:33;30.50;;;16.23;;
20375;SDS011;10347;51.828;6.466;2023-11-21T10:53:03;24.42;;;15.38;;
20375;SDS011;10347;51.828;6.466;2023-11-21T10:55:29;31.15;;;18.48;;
20375;SDS011;10347;51.828;6.466;2023-11-21T10:57:57;27.25;;;15.63;;
20375;SDS011;10347;51.828;6.466;2023-11-21T11:00:24;32.63;;;16.88;;
20375;SDS011;10347;51.828;6.466;2023-11-21T11:02:52;26.90;;;16.70;;
20375;SDS011;10347;51.828;6.466;2023-11-21T11:05:21;24.25;;;15.77;;
20375;SDS011;10347;51.828;6.466;2023-11-21T11:07:56;28.50;;;16.90;;
20375;SDS011;10347;51.828;6.466;2023-11-21T11:10:25;25.65;;;16.27;;
20375;SDS011;10347;51.828;6.466;2023-11-21T11:12:52;39.42;;;19.42;;
20375;SDS011;10347;51.828;6.466;2023-11-21T11:15:19;27.83;;;17.08;;
20375;SDS011;10347;51.828;6.466;2023-11-21T11:17:45;34.10;;;19.38;;
20375;SDS011;10347;51.828;6.466;2023-11-21T11:20:12;27.10;;;16.90;;
20375;SDS011;10347;51.828;6.466;2023-11-21T11:25:53;33.78;;;22.27;;
20375;SDS011;10347;51.828;6.466;2023-11-21T11:28:35;28.42;;;18.83;;
20375;SDS011;10347;51.828;6.466;2023-11-21T11:34:26;26.92;;;16.50;;
20375;SDS011;10347;51.828;6.466;2023-11-21T11:39:30;30.90;;;18.30;;
20375;SDS011;10347;51.828;6.466;2023-11-21T11:42:01;29.17;;;16.88;;
20375;SDS011;10347;51.828;6.466;2023-11-21T11:47:28;36.10;;;25.10;;
20375;SDS011;10347;51.828;6.466;2023-11-21T11:50:06;31.98;;;19.48;;
20375;SDS011;10347;51.828;6.466;2023-11-21T11:55:09;38.65;;;20.08;;
20375;SDS011;10347;51.828;6.466;2023-11-21T11:57:36;41.10;;;18.83;;
20375;SDS011;10347;51.828;6.466;2023-11-21T12:00:17;30.20;;;18.52;;
20375;SDS011;10347;51.828;6.466;2023-11-21T12:02:53;31.30;;;16.13;;
20375;SDS011;10347;51.828;6.466;2023-11-21T12:05:22;25.20;;;14.30;;
20375;SDS011;10347;51.828;6.466;2023-11-21T12:10:15;40.78;;;21.02;;
20375;SDS011;10347;51.828;6.466;2023-11-21T12:12:46;42.67;;;20.15;;
20375;SDS011;10347;51.828;6.466;2023-11-21T12:15:17;44.00;;;20.80;;
20375;SDS011;10347;51.828;6.466;2023-11-21T12:17:44;33.78;;;17.27;;
20375;SDS011;10347;51.828;6.466;2023-11-21T12:20:11;34.42;;;18.20;;
20375;SDS011;10347;51.828;6.466;2023-11-21T12:22:45;39.28;;;19.50;;
20375;SDS011;10347;51.828;6.466;2023-11-21T12:27:41;40.38;;;20.23;;
20375;SDS011;10347;51.828;6.466;2023-11-21T12:30:08;33.90;;;18.83;;
20375;SDS011;10347;51.828;6.466;2023-11-21T12:32:38;42.17;;;20.40;;
20375;SDS011;10347;51.828;6.466;2023-11-21T12:35:05;31.45;;;17.52;;
20375;SDS011;10347;51.828;6.466;2023-11-21T12:37:31;40.78;;;20.40;;
20375;SDS011;10347;51.828;6.466;2023-11-21T12:39:57;25.50;;;14.70;;
20375;SDS011;10347;51.828;6.466;2023-11-21T12:42:23;31.00;;;16.52;;
20375;SDS011;10347;51.828;6.466;2023-11-21T12:45:05;29.90;;;16.23;;
20375;SDS011;10347;51.828;6.466;2023-11-21T12:47:48;26.90;;;14.93;;
20375;SDS011;10347;51.828;6.466;2023-11-21T12:50:18;22.67;;;13.68;;
20375;SDS011;10347;51.828;6.466;2023-11-21T12:52:49;30.70;;;16.25;;
20375;SDS011;10347;51.828;6.466;2023-11-21T12:55:16;26.35;;;14.13;;
20375;SDS011;10347;51.828;6.466;2023-11-21T12:57:47;24.02;;;14.15;;
20375;SDS011;10347;51.828;6.466;2023-11-21T13:00:19;22.27;;;13.75;;
20375;SDS011;10347;51.828;6.466;2023-11-21T13:02:56;19.33;;;11.63;;
20375;SDS011;10347;51.828;6.466;2023-11-21T13:05:30;16.30;;;11.18;;
20375;SDS011;10347;51.828;6.466;2023-11-21T13:07:58;16.67;;;10.55;;
20375;SDS011;10347;51.828;6.466;2023-11-21T13:10:27;22.55;;;14.35;;
20375;SDS011;10347;51.828;6.466;2023-11-21T13:12:56;17.70;;;11.73;;
20375;SDS011;10347;51.828;6.466;2023-11-21T13:15:29;20.40;;;12.40;;
20375;SDS011;10347;51.828;6.466;2023-11-21T13:17:56;19.23;;;12.32;;
20375;SDS011;10347;51.828;6.466;2023-11-21T13:20:22;21.00;;;13.27;;
20375;SDS011;10347;51.828;6.466;2023-11-21T13:22:50;19.92;;;12.13;;
20375;SDS011;10347;51.828;6.466;2023-11-21T13:25:23;17.35;;;11.70;;
20375;SDS011;10347;51.828;6.466;2023-11-21T13:27:52;18.60;;;11.10;;
20375;SDS011;10347;51.828;6.466;2023-11-21T13:30:22;17.30;;;11.13;;
20375;SDS011;10347;51.828;6.466;2023-11-21T13:32:51;17.00;;;11.57;;
20375;SDS011;10347;51.828;6.466;2023-11-21T13:35:18;18.55;;;11.82;;
20375;SDS011;10347;51.828;6.466;2023-11-21T13:37:55;18.05;;;12.05;;
20375;SDS011;10347;51.828;6.466;2023-11-21T13:40:24;19.77;;;12.45;;
20375;SDS011;10347;51.828;6.466;2023-11-21T13:42:54;17.92;;;11.50;;
20375;SDS011;10347;51.828;6.466;2023-11-21T13:45:24;20.75;;;11.93;;
20375;SDS011;10347;51.828;6.466;2023-11-21T13:47:52;20.33;;;12.70;;
20375;SDS011;10347;51.828;6.466;2023-11-21T13:50:24;18.90;;;11.60;;
20375;SDS011;10347;51.828;6.466;2023-11-21T13:52:56;21.50;;;13.10;;
20375;SDS011;10347;51.828;6.466;2023-11-21T13:55:22;18.42;;;11.98;;
20375;SDS011;10347;51.828;6.466;2023-11-21T13:57:50;17.02;;;11.60;;
20375;SDS011;10347;51.828;6.466;2023-11-21T14:00:17;20.23;;;12.63;;
20375;SDS011;10347;51.828;6.466;2023-11-21T14:03:01;18.70;;;11.82;;
20375;SDS011;10347;51.828;6.466;2023-11-21T14:05:27;18.08;;;12.07;;
20375;SDS011;10347;51.828;6.466;2023-11-21T14:07:56;17.70;;;11.77;;
20375;SDS011;10347;51.828;6.466;2023-11-21T14:10:28;16.25;;;10.57;;
20375;SDS011;10347;51.828;6.466;2023-11-21T14:13:02;16.95;;;10.48;;
20375;SDS011;10347;51.828;6.466;2023-11-21T14:15:28;18.38;;;11.88;;
20375;SDS011;10347;51.828;6.466;2023-11-21T14:17:54;25.35;;;14.35;;
20375;SDS011;10347;51.828;6.466;2023-11-21T14:20:20;20.67;;;12.70;;
20375;SDS011;10347;51.828;6.466;2023-11-21T14:22:46;16.80;;;11.27;;
20375;SDS011;10347;51.828;6.466;2023-11-21T14:25:11;20.20;;;12.27;;
20375;SDS011;10347;51.828;6.466;2023-11-21T14:27:39;20.15;;;11.73;;
20375;SDS011;10347;51.828;6.466;2023-11-21T14:30:05;19.48;;;11.63;;
20375;SDS011;10347;51.828;6.466;2023-11-21T14:32:31;21.52;;;13.65;;
20375;SDS011;10347;51.828;6.466;2023-11-21T14:34:57;24.42;;;13.85;;
20375;SDS011;10347;51.828;6.466;2023-11-21T14:37:22;22.25;;;12.73;;
20375;SDS011;10347;51.828;6.466;2023-11-21T14:39:48;21.67;;;12.85;;
20375;SDS011;10347;51.828;6.466;2023-11-21T14:42:14;16.98;;;10.95;;